MNL weather

Ninoy Aquino International Airport
Manila, Philippines

Public forecast

Using degrees Celsius for public forecast. Weather courtesy of forecast.io.

Current aviation weather report (METAR) for Ninoy Aquino International Airport

Retrieved 2019/10/21 21:00 UTC (14 minutes ago):

RPLL 212100Z VRB03KT 9999 FEW027 27/23 Q1008 NOSIG RMK A2977

Aviation forecast (TAF) for Ninoy Aquino International Airport

Retrieved 2019/10/21 18:00 UTC (3 hours ago):

TAF RPLL 211700Z 2118/2224 11006KT 9999 FEW025 SCT300 TX33/2206Z TN26/2121Z TEMPO 2118/2124 VRB03KT FEW025 SCT090 TEMPO 2200/2206 15008KT FEW023 SCT100